Pledger, TX (77468)

2:20 AM CDT on September 25, 2016 (GMT -0500)
Oak Creek 2 | | Change Station

Elev 62 ft 29.04 °N, 95.89 °W | Updated 9 seconds ago

Overcast
Overcast
78.1 °F
Feels Like 81 °F
N
0.0
Wind Variable Wind from NW
Gusts 0.0 mph

Today
High -- | Low -- °F
--% Chance of Precip.
Yesterday
High -- | Low -- °F
Precip. -- in
Pressure 29.95 in
Visibility 7.0 miles
Clouds Overcast 7000 ft
Heat Index 81 °F
Dew Point 77 °F
Humidity 95%
Rainfall 0.00 in
Snow Depth Not available.
7:13 AM 7:15 PM
Waning Crescent, 30% visible
METAR KBYY 250715Z AUTO 00000KT 7SM OVC070 25/25 A2995 RMK AO2 T02570253
Pressure 29.95 in
Visibility 7.0 miles
Clouds Overcast 7000 ft
Heat Index 81 °F
Dew Point 77 °F
Humidity 95%
Rainfall 0.00 in
Snow Depth Not available.
7:13 AM 7:15 PM
Waning Crescent, 30% visible
METAR KBYY 250715Z AUTO 00000KT 7SM OVC070 25/25 A2995 RMK AO2 T02570253

10-Day Weather Forecast

Almanac

Astronomy

Sep. 25, 2016 Rise Set
Actual Time
Civil Twilight
Nautical Twilight
Astronomical Twilight
Moon
Length of Visible Light
Length of Day
Tomorrow will be .
, % of the Moon is Illuminated

Today's Extremes

State Highs State Lows

Community

WunderPhotos

Upload Photos

1,941,554 photos uploaded!

WunderBlog® & News

Nearby

Air Quality

  Air Quality AQ Index Pollutant
Not available.

Snow Depth

Station Depth Elevation

Earthquake Activity

City Distance Mag. Time & Date
Minimum magnitude displayed is 2.5.

Coastal Water Temperatures

Place Temperature

Stations

Nearby Weather Stations

Station Location Temp. Windchill Dew Point Humidity Wind Precip. Elev Updated Type
                   

Watches & Warnings

There are currently no watches in effect.